VILKVNKT

Guest
Details From VILK - LUCKNOW
To VNKT - Kathmandu Tribhuvan Intl
Flight Number -
Tags generated
Created
Modified
Stats Distance 246 nm / 456 km
Max Altitude 21,100 ft / 6,431 m
Waypoints 4
Social Downloads 3
Likes 0
Share VATSIM

Download

Looking for another format? Having issues loading an existing format? Contact us
Advertisement - Login to hide

Notes

Basic altitude profile: - Ascent Rate: 2500ft/min - Ascent Speed: 250kts - Cruise Altitude: 35000ft - Cruise Speed: 420kts - Descent Rate: 1500ft/min - Descent Speed: 250kts Options: - Use NATs: yes - Use PACOTS: yes - Use low airways: yes - Use high airways: yes

Route

VILK GUGIP B345 BWA VNKT

ID Type Via Altitude Latitude Longitude Leg Dist Tot Dist Heading (true) Name
O VILK APT - 0 ft / 0 m 26.76059˚ 80.88934˚ - 0 nm - LUCKNOW
GUGIP FIX - 11,600 ft / 3,536 m 26.93897˚ 81.46672˚ 32 nm 32 nm 71° / 71° -
BWA VOR B345 (AWY-LO) 21,100 ft / 6,431 m 27.50333˚ 83.43278˚ 110 nm 143 nm 72° / 73° BHAIRAHAWA VOR-DME
O VNKT APT - 0 ft / 0 m 27.69658˚ 85.35910˚ 103 nm 246 nm 83° / 84° Kathmandu Tribhuvan Intl

Altitude Profile

Advertisement - Login to hide

Weather


0- 5 10 15 20 25 30 35+ Temperature / ° C

Clouds and Precipitation
Forecast for 2017-12-12 06:00 UTC. Updated 2 hours ago

Ground ~20,000 ft ~40,000 ft Winds

VILK

Details ICAO VILK (LKO)
Name LUCKNOW
Region India
Timezone Asia/Kolkata (UTC+5.5)
Stats Elevation 410 ft / 125 m (AMSL)
Location 26.760593° 80.889341°
Runways 1
Magnetic Variation 0.666° E

METAR

VILK 120430Z 09003KT 0800 R27/1100 BR SCT020 BKN100 21/12 Q1017 NOSIG

Decode

TAF

Not found

Departure Runways

ID Width Length Bearing (true) Bearing (mag) Surface Threshold Offset Overrun Length
09 148 ft / 45 m 8,995 ft / 2,742 m 89.15° 88.48° Asphalt 515 ft / 157 m 590 ft / 180 m
27 148 ft / 45 m 8,995 ft / 2,742 m 269.16° 268.49° Asphalt 0 ft / 0 m 190 ft / 58 m

VNKT

Details ICAO VNKT (KTM)
Name Kathmandu Tribhuvan Intl
Region Nepal
Timezone Asia/Kathmandu (UTC+5.8)
Stats Elevation 4,390 ft / 1,338 m (AMSL)
Location 27.696583° 85.359100°
Runways 1
Magnetic Variation 0.492° E

METAR

VNKT 120420Z VRB02KT 5000 HZ FEW015 16/10 Q1022 NOSIG

Decode

TAF

TAF VNKT 112300Z 1200/1224 00000KT 3000 BR FEW010 PROB40 1201/1203 2000 BR BECMG 1204/1205 17003KT 5000 HZ FEW015 SCT200 BECMG 1207/1209 26008KT 8000 FEW020 SCT030 BECMG 1214/1215 00000KT 6000 FEW015

Decode

Destination Runways

ID Width Length Bearing (true) Bearing (mag) Surface Threshold Offset Overrun Length
02 148 ft / 45 m 10,017 ft / 3,053 m 21.50° 21.01° Asphalt 0 ft / 0 m 0 ft / 0 m
20 148 ft / 45 m 10,017 ft / 3,053 m 201.51° 201.02° Asphalt 400 ft / 122 m 0 ft / 0 m